Date,TemperatureHighF,TemperatureAvgF,TemperatureLowF,DewpointHighF,DewpointAvgF,DewpointLowF,HumidityHigh,HumidityAvg,HumidityLow,PressureMaxIn,PressureMinIn,WindSpeedMaxMPH,WindSpeedAvgMPH,GustSpeedMaxMPH,PrecipitationSumIn
2013-1-1,33,23,14,32,16,8,99,77,58,0.00,40.00,14,6,18,0.00
2013-1-2,26,17,8,13,9,5,87,70,45,0.00,40.00,8,2,10,0.00
2013-1-3,39,27,13,22,17,10,88,67,50,0.00,40.00,12,4,14,0.00
2013-1-4,37,29,19,23,21,17,93,72,51,0.00,40.00,12,4,16,0.00
2013-1-5,40,33,22,30,24,18,86,71,55,0.00,40.00,12,6,16,0.00
2013-1-6,38,32,21,31,24,19,93,71,57,0.00,40.00,16,7,25,0.00
2013-1-7,39,29,17,26,21,16,95,75,50,0.00,40.00,14,4,18,0.00
2013-1-8,46,38,23,33,27,21,95,68,43,0.00,40.00,10,5,14,0.00
2013-1-9,58,46,38,45,35,25,99,68,33,0.00,40.00,11,4,14,0.00
2013-1-10,57,44,36,57,39,29,98,83,59,0.00,40.00,16,9,21,0.00
2013-1-11,60,55,51,59,48,45,98,79,58,0.00,40.00,25,10,31,0.00
2013-1-12,63,50,33,51,45,32,98,84,56,0.00,40.00,27,8,38,0.00
2013-1-13,33,27,20,32,22,11,97,81,68,0.00,40.00,27,9,38,0.00
2013-1-14,28,21,17,16,11,-100,85,66,52,0.00,40.00,10,4,14,0.00
2013-1-15,30,26,18,22,17,14,90,69,56,0.00,40.00,10,5,16,0.00
2013-1-16,40,31,21,23,20,16,93,67,40,0.00,40.00,12,4,14,0.00
2013-1-17,40,34,25,30,24,19,86,66,50,0.00,40.00,18,6,21,0.00
2013-1-18,44,34,22,30,24,20,95,69,45,0.00,40.00,18,9,24,0.00
2013-1-19,59,45,37,34,31,28,73,59,39,0.00,40.00,23,12,27,0.00
2013-1-20,46,31,24,31,15,10,69,52,42,0.00,40.00,17,7,24,0.00
2013-1-21,24,19,14,12,4,-3,67,52,41,0.00,40.00,18,9,26,0.00
2013-1-22,19,15,10,7,1,-3,60,52,46,0.00,40.00,10,4,16,0.00
2013-1-23,38,26,14,20,14,7,86,60,44,0.00,40.00,17,4,27,0.00
2013-1-24,28,22,14,16,7,0,64,53,46,0.00,40.00,18,9,27,0.00
2013-1-25,41,32,26,21,14,8,57,48,43,0.00,40.00,14,5,18,0.00
2013-1-26,38,30,20,20,15,9,72,54,39,0.00,40.00,12,4,16,0.00
2013-1-27,31,28,25,24,19,17,73,70,64,0.00,40.00,12,5,14,0.00
2013-1-28,59,57,52,58,56,50,97,96,93,0.00,40.00,16,11,21,0.00
2013-1-29,66,60,53,58,56,52,98,86,61,0.00,40.00,23,13,29,0.00
2013-1-30,53,42,28,53,35,14,98,78,54,0.00,40.00,24,13,37,0.00
2013-1-31,32,24,11,20,10,-3,66,54,45,0.00,40.00,27,13,36,0.00
2013-2-1,26,17,8,18,2,-5,78,51,42,0.00,40.00,17,7,24,0.00
2013-2-2,41,30,24,20,17,13,78,57,41,0.00,40.00,17,8,21,0.00
2013-2-3,35,29,25,29,18,11,94,65,39,0.00,40.00,18,6,29,0.00
2013-2-4,53,36,26,34,23,15,83,60,42,0.00,40.00,14,7,18,0.00
2013-2-5,52,38,30,33,28,25,85,70,44,0.00,40.00,14,5,21,0.00
2013-2-6,49,38,25,35,28,24,96,69,42,0.00,40.00,10,4,12,0.00
2013-2-7,57,44,35,46,36,29,97,76,45,0.00,40.00,19,6,27,0.00
2013-2-8,40,34,32,38,27,23,93,76,67,0.00,40.00,19,9,27,0.00
2013-2-9,44,36,30,31,26,23,74,67,51,0.00,40.00,17,8,21,0.00
2013-2-10,54,46,38,52,42,29,98,87,44,0.00,40.00,21,12,26,0.00
2013-2-11,49,43,37,29,24,21,57,48,39,0.00,40.00,21,10,29,0.00
2013-2-12,47,38,27,30,26,22,90,64,40,0.00,40.00,9,2,10,0.00
2013-2-13,53,41,34,33,28,23,90,64,33,0.00,40.00,14,3,17,0.00
2013-2-14,55,44,36,33,30,28,83,62,37,0.00,40.00,18,7,27,0.00
2013-2-15,38,34,27,33,21,13,83,60,38,0.00,40.00,18,6,24,0.00
2013-2-16,34,27,22,17,12,9,71,53,36,0.00,40.00,16,6,21,0.00
2013-2-17,43,31,18,21,18,14,92,63,35,0.00,40.00,14,7,18,0.00
2013-2-18,56,44,34,49,36,21,98,73,54,0.00,40.00,29,15,46,0.00
2013-2-19,35,28,23,27,14,8,72,54,45,0.00,40.00,21,11,29,0.00
2013-2-20,26,22,16,13,8,5,65,54,45,0.00,40.00,12,5,18,0.00
2013-2-21,33,26,18,32,21,13,97,84,67,0.00,40.00,25,8,29,0.00
2013-2-22,37,33,25,35,28,18,99,85,65,0.00,40.00,16,5,21,0.00
2013-2-23,35,27,19,20,17,15,90,67,46,0.00,40.00,9,3,12,0.00
2013-2-24,44,31,16,26,20,14,94,68,40,0.00,40.00,8,3,9,0.00
2013-2-25,48,38,27,31,28,25,91,68,46,0.00,40.00,18,10,24,0.00
2013-2-26,49,38,34,45,37,30,98,95,73,0.00,40.00,18,9,25,0.00
2013-2-27,37,34,32,34,32,28,98,92,82,0.00,40.00,17,10,24,0.00
2013-2-28,36,34,32,32,30,29,93,85,78,0.00,40.00,14,7,18,0.00
2013-3-1,36,32,29,32,29,25,98,89,71,0.00,40.00,14,6,17,0.00
2013-3-2,34,29,25,25,19,13,84,67,45,0.00,40.00,14,8,24,0.00
2013-3-3,38,30,20,23,17,12,92,62,35,0.00,40.00,6,2,9,0.00
2013-3-4,45,38,32,31,26,19,78,61,49,0.00,40.00,21,10,25,0.00
2013-3-5,41,36,32,33,27,19,99,73,57,0.00,40.00,21,10,29,0.00
2013-3-6,35,32,27,24,22,20,76,68,62,0.00,40.00,21,10,37,0.00
2013-3-7,42,32,24,28,24,21,93,75,52,0.00,40.00,10,3,11,0.00
2013-3-8,50,38,26,32,28,25,96,70,44,0.00,40.00,16,6,21,0.00
2013-3-9,60,47,40,39,32,28,73,55,38,0.00,40.00,21,10,24,0.00
2013-3-10,63,55,49,54,46,34,98,75,41,0.00,40.00,21,10,33,0.00
2013-3-11,49,38,35,49,33,24,98,82,64,0.00,40.00,21,10,25,0.00
2013-3-12,49,38,30,25,22,19,75,54,35,0.00,40.00,18,8,26,0.00
2013-3-13,40,32,28,23,17,13,69,53,36,0.00,40.00,24,9,29,0.00
2013-3-14,45,34,23,27,23,19,92,67,44,0.00,40.00,17,5,24,0.00
2013-3-15,64,49,29,47,35,25,95,62,37,0.00,40.00,14,4,17,0.00
2013-3-16,62,47,37,47,38,30,97,72,58,0.00,40.00,21,8,27,0.00
2013-3-17,39,36,33,35,31,26,98,84,73,0.00,40.00,18,10,21,0.00
2013-3-18,46,40,36,40,34,23,98,83,54,0.00,40.00,18,7,25,0.00
2013-3-19,46,37,29,23,15,12,59,42,25,0.00,40.00,16,7,21,0.00
2013-3-30,56,52,46,47,40,-100,96,73,50,0.00,40.00,16,6,19,0.00
2013-3-31,67,54,46,49,43,32,97,71,34,0.00,40.00,14,4,17,0.00
2013-4-1,50,42,36,35,24,19,63,48,35,0.00,40.00,16,8,21,0.00
2013-4-2,49,39,29,22,19,17,62,45,29,0.00,40.00,12,4,16,0.00
2013-4-3,54,42,31,25,22,18,66,45,31,0.00,40.00,17,6,24,0.00
2013-4-4,62,48,33,26,23,21,59,39,24,0.00,40.00,10,4,12,0.00
2013-4-5,65,52,39,37,31,25,65,45,31,0.00,40.00,10,4,14,0.00
2013-4-6,70,60,50,41,36,31,49,41,32,0.00,40.00,25,13,34,0.00
2013-4-7,78,65,53,59,47,40,94,54,32,0.00,40.00,17,5,24,0.00
2013-4-8,74,67,60,59,54,52,94,66,52,0.00,40.00,18,10,24,0.00
2013-4-9,77,70,62,62,57,54,78,65,52,0.00,40.00,27,10,37,0.00
2013-4-10,80,72,53,66,63,53,98,75,57,0.00,40.00,23,12,31,0.00
2013-4-11,63,51,41,62,45,27,98,83,58,0.00,40.00,16,8,24,0.00
2013-4-12,48,42,38,31,29,26,69,59,48,0.00,40.00,18,8,27,0.00
2013-4-13,60,49,36,36,32,28,82,54,34,0.00,40.00,17,5,24,0.00
2013-4-14,76,62,46,49,42,35,75,50,32,0.00,40.00,21,10,29,0.00
2013-4-15,71,63,55,60,54,43,95,74,49,0.00,40.00,14,8,19,0.00
2013-4-16,55,49,47,53,48,45,98,94,86,0.00,40.00,16,8,23,0.00
2013-4-17,81,64,50,67,57,47,97,81,56,0.00,40.00,19,9,26,0.00
2013-4-18,75,62,43,66,58,33,97,88,68,0.00,40.00,27,12,37,0.00
2013-4-19,49,42,38,33,25,22,73,51,34,0.00,40.00,21,12,32,0.00
2013-4-20,55,44,33,31,26,20,84,50,30,0.00,40.00,11,4,14,0.00
2013-4-21,62,50,40,36,32,28,66,51,38,0.00,40.00,16,9,21,0.00
2013-4-22,70,57,40,46,38,32,83,50,32,0.00,40.00,17,5,21,0.00
2013-4-23,60,55,41,58,49,40,98,81,61,0.00,40.00,16,5,24,0.00
2013-4-24,52,44,38,41,34,26,97,73,37,0.00,40.00,14,7,21,0.00
2013-4-25,61,50,39,38,32,26,87,56,28,0.00,40.00,16,4,18,0.00
2013-4-26,61,52,45,47,40,34,82,62,49,0.00,40.00,17,6,23,0.00
2013-4-27,55,53,50,54,50,47,97,92,77,0.00,40.00,14,4,16,0.00
2013-4-28,60,55,51,56,53,49,97,91,77,0.00,40.00,11,4,17,0.00
2013-4-29,73,59,42,57,50,42,97,77,50,0.00,40.00,16,6,21,0.00
2013-4-30,82,73,61,59,56,52,85,58,38,0.00,40.00,16,8,21,0.00
2013-5-1,82,71,55,62,55,51,96,62,36,0.00,40.00,14,4,17,0.00
2013-5-2,81,64,50,67,58,49,96,84,47,0.00,40.00,18,4,24,0.00
2013-5-3,63,52,47,60,51,47,98,97,90,0.00,40.00,11,4,14,0.00
2013-5-4,48,46,44,47,45,43,98,97,93,0.00,40.00,10,2,14,0.00
2013-5-5,61,54,47,58,52,46,97,93,73,0.00,40.00,16,6,21,0.00
2013-5-6,67,60,53,59,53,51,96,81,60,0.00,40.00,14,6,21,0.00
2013-5-7,78,66,57,60,54,46,95,72,35,0.00,40.00,9,2,14,0.00
2013-5-8,83,68,51,62,52,45,97,63,28,0.00,40.00,9,2,12,0.00
2013-5-9,73,67,63,66,61,55,97,82,61,0.00,40.00,12,3,21,0.00
2013-5-10,70,62,54,65,55,-100,97,84,60,0.00,40.00,14,5,18,0.00
2013-5-11,68,58,49,51,42,-100,95,62,30,0.00,40.00,18,6,24,0.00
2013-5-12,61,51,40,37,31,27,76,48,29,0.00,40.00,12,5,21,0.00
2013-5-13,70,56,38,46,36,28,97,54,24,0.00,40.00,9,3,12,0.00
2013-5-14,91,72,55,59,50,36,63,48,32,0.00,40.00,17,8,23,0.00
2013-5-15,88,76,66,63,56,50,70,51,40,0.00,40.00,16,8,21,0.00
2013-5-16,79,66,63,67,43,-100,92,74,47,0.00,40.00,24,5,31,0.00
2013-5-17,77,68,61,67,56,-100,96,81,60,0.00,40.00,10,3,12,0.00
2013-5-18,80,71,60,67,62,60,97,76,53,0.00,40.00,10,4,14,0.00
2013-5-19,88,76,64,73,67,63,96,75,55,0.00,40.00,18,6,21,0.00
2013-5-20,82,76,64,69,66,59,93,72,54,0.00,40.00,31,8,47,0.00
2013-5-21,80,70,63,67,64,61,97,81,57,0.00,40.00,16,8,21,0.00
2013-5-22,77,69,64,65,58,52,92,70,45,0.00,40.00,14,8,21,0.00
2013-5-23,64,61,53,61,54,48,96,78,64,0.00,40.00,18,6,25,0.00
2013-5-24,70,56,43,48,41,37,93,61,31,0.00,40.00,9,3,11,0.00
2013-5-25,68,58,46,53,48,43,97,74,45,0.00,40.00,14,4,18,0.00
2013-5-26,76,64,54,61,54,47,84,69,55,0.00,40.00,16,10,18,0.00
2013-5-27,84,72,64,65,62,58,97,74,51,0.00,40.00,21,8,29,0.00
2013-5-28,83,74,63,69,64,61,96,74,54,0.00,40.00,25,10,37,0.00
2013-5-29,85,77,65,67,63,59,93,64,49,0.00,40.00,19,7,25,0.00
2013-5-30,84,75,67,70,67,62,96,77,59,0.00,40.00,27,10,37,0.00
2013-5-31,76,67,63,71,65,62,97,94,84,0.00,40.00,14,8,21,0.00
2013-6-1,66,64,64,65,64,63,97,97,97,0.00,40.00,18,8,21,0.00
2013-6-3,70,64,54,52,48,45,92,57,43,0.00,40.00,6,2,6,0.00
2013-6-4,74,63,51,60,53,50,97,73,45,0.00,40.00,10,3,12,0.00
2013-6-5,84,71,58,64,58,53,96,68,37,0.00,40.00,9,2,11,0.00
2013-6-6,82,72,65,63,60,56,93,70,41,0.00,40.00,12,5,16,0.00
2013-6-7,78,67,61,61,56,53,92,70,44,0.00,40.00,12,5,14,0.00
2013-6-8,81,69,56,63,56,51,97,67,38,0.00,40.00,11,2,14,0.00
2013-6-9,81,69,62,67,60,55,97,78,45,0.00,40.00,17,4,27,0.00
2013-6-10,79,69,62,66,61,56,97,79,46,0.00,40.00,10,4,14,0.00
2013-6-11,90,76,59,73,65,57,97,73,49,0.00,40.00,14,4,18,0.00
2013-6-12,93,84,74,74,71,68,94,66,47,0.00,40.00,23,8,25,0.00
2013-6-13,86,78,65,70,60,52,86,59,34,0.00,40.00,14,6,21,0.00
2013-6-14,85,72,58,62,57,53,95,63,36,0.00,40.00,12,2,17,0.00
2013-6-15,87,75,62,69,62,57,96,66,43,0.00,40.00,14,4,19,0.00
2013-6-16,83,73,67,74,69,66,97,89,66,0.00,40.00,11,3,14,0.00
2013-6-17,88,74,65,76,70,64,96,87,56,0.00,40.00,14,3,18,0.00
2013-6-18,90,76,63,69,64,58,97,71,37,0.00,40.00,10,2,14,0.00
2013-6-19,86,75,63,70,63,58,96,71,41,0.00,40.00,6,2,10,0.00
2013-6-20,89,74,66,70,67,64,96,82,45,0.00,40.00,6,2,11,0.00
2013-6-22,89,74,67,77,69,66,97,87,56,0.00,40.00,14,5,18,0.00
2013-6-23,78,70,67,72,68,63,97,93,67,0.00,40.00,16,5,25,0.00
2013-6-24,90,76,66,75,70,65,97,82,50,0.00,40.00,10,4,14,0.00
2013-6-25,93,82,74,73,71,69,94,71,48,0.00,40.00,14,6,21,0.00
2013-6-26,89,80,73,79,73,70,94,81,62,0.00,40.00,21,7,24,0.00
2013-6-27,94,82,74,75,70,62,96,71,35,0.00,40.00,14,5,18,0.00
2013-6-28,88,80,73,72,62,52,90,60,33,0.00,40.00,10,5,14,0.00
2013-6-29,80,72,66,67,62,56,93,71,54,0.00,40.00,14,5,16,0.00
2013-6-30,75,69,64,68,62,58,96,79,58,0.00,40.00,14,6,18,0.00
2013-7-1,74,67,64,65,59,52,96,75,60,0.00,40.00,14,6,18,0.00
2013-7-2,67,63,61,64,62,60,97,95,90,0.00,40.00,11,6,17,0.00
2013-7-3,81,71,63,64,59,53,96,71,42,0.00,40.00,6,2,6,0.00
2013-7-4,85,73,60,67,60,53,96,68,37,0.00,40.00,9,2,12,0.00
2013-7-5,82,72,63,69,65,61,97,80,49,0.00,40.00,9,2,12,0.00
2013-7-6,87,75,66,73,66,59,96,77,43,0.00,40.00,14,3,18,0.00
2013-7-7,88,77,65,70,67,63,94,74,52,0.00,40.00,10,4,12,0.00
2013-7-8,91,79,72,72,68,-100,91,74,48,0.00,40.00,12,5,14,0.00
2013-7-9,95,84,76,77,73,70,85,70,48,0.00,40.00,10,5,16,0.00
2013-7-10,86,77,69,77,68,-100,97,80,62,0.00,40.00,18,5,23,0.00
2013-7-11,84,75,66,68,61,56,93,66,41,0.00,40.00,10,4,14,0.00
2013-7-12,85,70,60,64,60,53,97,76,35,0.00,40.00,6,1,9,0.00
2013-7-13,85,74,61,67,62,59,96,68,42,0.00,40.00,10,3,14,0.00
2013-7-14,89,77,64,74,67,62,95,74,50,0.00,40.00,9,3,11,0.00
2013-7-15,90,80,72,78,73,70,96,83,57,0.00,40.00,12,2,12,0.00
2013-7-16,93,86,72,77,71,68,96,63,45,0.00,40.00,6,3,9,0.00
2013-10-29,56,54,48,55,51,37,98,91,66,0.00,40.00,9,4,12,0.00
2013-10-30,71,63,55,68,60,55,98,91,70,0.00,40.00,12,5,16,0.00
2013-10-31,67,62,50,64,60,48,97,95,90,0.00,40.00,19,10,27,0.00
2013-11-1,50,48,46,48,46,45,97,95,91,0.00,40.00,9,6,14,0.00
2013-11-2,54,50,44,40,33,30,69,54,43,0.00,40.00,12,6,21,0.00
2013-11-3,58,46,31,41,31,26,98,62,32,0.00,40.00,12,3,14,0.00
2013-11-4,57,51,46,43,37,31,67,58,50,0.00,40.00,12,8,17,0.00
2013-11-5,63,56,51,51,47,43,96,74,54,0.00,40.00,12,5,14,0.00
2013-11-6,60,51,38,55,48,35,98,89,63,0.00,40.00,19,10,24,0.00
2013-12-22,38,34,30,35,31,24,99,91,76,0.00,40.00,16,8,21,0.00
2013-12-23,30,24,13,24,15,3,80,69,57,0.00,40.00,14,7,23,0.00
2013-12-24,22,16,7,9,1,-4,68,53,34,0.00,40.00,14,6,18,0.00
2013-12-25,34,29,21,28,19,9,77,65,57,0.00,40.00,14,7,23,0.00
2013-12-26,43,35,24,29,25,22,95,70,46,0.00,40.00,12,7,14,0.00
2013-12-27,49,39,29,33,29,27,91,68,45,0.00,40.00,11,6,14,0.00
2013-12-28,51,42,32,33,31,28,93,68,43,0.00,40.00,12,7,16,0.00